createdAt,value
2023-01-21T00:00:45.716Z,2.76
2023-01-21T00:01:47.290Z,2.80
2023-01-21T00:02:50.990Z,2.78
2023-01-21T00:03:53.243Z,2.76
2023-01-21T00:04:57.213Z,2.77
2023-01-21T00:06:00.669Z,2.88
2023-01-21T00:07:04.585Z,2.91
2023-01-21T00:08:08.932Z,2.99
2023-01-21T00:09:14.021Z,2.92
2023-01-21T00:10:20.220Z,2.97
2023-01-21T00:11:23.729Z,2.95
2023-01-21T00:12:26.970Z,2.83
2023-01-21T00:13:29.164Z,2.95
2023-01-21T00:14:32.041Z,3.04
2023-01-21T00:15:36.560Z,2.81
2023-01-21T00:16:40.008Z,2.65
2023-01-21T00:17:43.599Z,2.89
2023-01-21T00:18:47.420Z,2.87
2023-01-21T00:19:50.725Z,2.98
2023-01-21T00:20:55.786Z,2.89
2023-01-21T00:21:59.300Z,2.90
2023-01-21T00:23:02.587Z,3.00
2023-01-21T00:24:05.911Z,3.06
2023-01-21T00:25:10.483Z,2.90
2023-01-21T00:26:14.884Z,2.68
2023-01-21T00:27:18.299Z,2.78
2023-01-21T00:28:22.675Z,2.83
2023-01-21T00:29:27.011Z,2.94
2023-01-21T00:30:34.408Z,2.78
2023-01-21T00:31:38.842Z,2.73
2023-01-21T00:32:42.289Z,2.73
2023-01-21T00:33:45.690Z,2.86
2023-01-21T00:34:49.299Z,2.81
2023-01-21T00:36:00.028Z,2.96
2023-01-21T00:37:02.425Z,2.92
2023-01-21T00:38:05.129Z,2.84
2023-01-21T00:39:08.015Z,2.73
2023-01-21T00:40:11.726Z,2.57
2023-01-21T00:41:15.033Z,2.69
2023-01-21T00:42:17.699Z,2.64
2023-01-21T00:43:21.099Z,2.72
2023-01-21T00:44:26.107Z,2.67
2023-01-21T00:45:30.404Z,2.69
2023-01-21T00:46:33.648Z,2.82
2023-01-21T00:47:37.109Z,2.93
2023-01-21T00:48:41.010Z,2.80
2023-01-21T00:49:43.371Z,3.01
2023-01-21T00:50:46.693Z,2.84
2023-01-21T00:51:50.184Z,2.74
2023-01-21T00:52:54.721Z,2.56
2023-01-21T00:53:58.999Z,2.61
2023-01-21T00:55:03.819Z,2.62
2023-01-21T00:56:08.663Z,2.63
2023-01-21T00:57:14.943Z,2.76
2023-01-21T00:58:19.571Z,2.68
2023-01-21T00:59:23.700Z,2.44
2023-01-21T01:00:28.458Z,2.48
2023-01-21T01:01:33.509Z,2.58
2023-01-21T01:02:44.019Z,2.66
2023-01-21T01:03:47.839Z,2.68
2023-01-21T01:04:51.147Z,2.63
2023-01-21T01:05:56.011Z,2.74
2023-01-21T01:06:58.783Z,2.82
2023-01-21T01:08:02.293Z,2.88
2023-01-21T01:09:05.704Z,3.00
2023-01-21T01:10:09.287Z,2.70
2023-01-21T01:11:13.538Z,2.73
2023-01-21T01:12:17.254Z,2.65
2023-01-21T01:13:20.962Z,2.64
2023-01-21T01:14:24.261Z,2.62
2023-01-21T01:15:28.641Z,2.56
2023-01-21T01:16:32.309Z,2.78
2023-01-21T09:28:03.863Z,2.99
2023-01-21T09:29:07.721Z,2.92
2023-01-21T09:30:11.522Z,2.78
2023-01-21T09:31:16.579Z,2.93
2023-01-21T09:32:36.851Z,2.98
2023-01-21T09:33:42.649Z,2.96
2023-01-21T09:34:46.885Z,2.81
2023-01-21T09:35:56.610Z,2.96
2023-01-21T09:37:00.149Z,2.96
2023-01-21T09:38:04.357Z,2.89
2023-01-21T09:39:08.332Z,2.89
2023-01-21T09:40:13.776Z,2.82
2023-01-21T09:41:25.953Z,3.01
2023-01-21T09:42:30.086Z,3.09
2023-01-21T09:43:36.193Z,2.94
2023-01-21T09:44:46.858Z,3.08
2023-01-21T09:45:51.219Z,3.25
2023-01-21T09:47:09.302Z,3.33
2023-01-21T09:48:14.444Z,3.18
2023-01-21T09:49:22.870Z,3.18
2023-01-21T09:50:25.538Z,3.28
2023-01-21T09:51:31.867Z,3.28
2023-01-21T09:52:46.894Z,3.29
2023-01-21T09:53:51.816Z,3.19
2023-01-21T09:54:55.868Z,3.26
2023-01-21T09:56:02.282Z,3.11
2023-01-21T09:57:19.686Z,2.88
2023-01-21T09:58:27.884Z,3.11
2023-01-21T09:59:35.147Z,3.29
2023-01-21T10:00:42.091Z,3.26
2023-01-21T10:01:47.863Z,3.34
2023-01-21T10:02:55.065Z,3.25
2023-01-21T10:04:03.073Z,3.24
2023-01-21T10:05:09.307Z,3.21
2023-01-21T10:06:31.061Z,3.27
2023-01-21T10:07:35.726Z,3.35
2023-01-21T10:08:56.658Z,3.18
2023-01-21T10:10:02.070Z,2.94
2023-01-21T10:11:13.275Z,3.21
2023-01-21T10:12:18.429Z,3.00
2023-01-21T13:33:08.004Z,2.45
2023-01-21T13:34:14.225Z,2.57
2023-01-21T13:35:24.722Z,2.53
2023-01-21T13:36:48.400Z,2.59
2023-01-21T13:38:01.820Z,2.61
2023-01-21T13:39:06.149Z,2.48
2023-01-21T13:40:21.051Z,2.27
2023-01-21T13:41:39.387Z,2.27
2023-01-21T13:42:44.659Z,2.51
2023-01-21T13:43:55.823Z,2.60
2023-01-21T13:45:04.212Z,2.48
2023-01-21T13:46:12.386Z,2.43
2023-01-21T13:47:28.559Z,2.55
2023-01-21T13:48:39.713Z,2.54
2023-01-21T13:49:46.590Z,2.66
2023-01-21T13:51:06.923Z,2.73
2023-01-21T13:52:17.066Z,2.67
2023-01-21T13:53:28.988Z,2.47
2023-01-21T13:54:41.193Z,2.66
2023-01-21T13:56:04.400Z,2.54
2023-01-21T13:57:22.156Z,2.50
2023-01-21T13:58:33.164Z,2.68
2023-01-21T13:59:41.300Z,2.65
2023-01-21T14:00:46.056Z,2.37
2023-01-21T14:01:51.135Z,2.41
2023-01-21T14:03:00.249Z,2.38
2023-01-21T14:04:04.260Z,2.63
2023-01-21T14:05:13.102Z,2.43
2023-01-21T14:06:20.837Z,2.43
2023-01-21T14:07:31.946Z,2.57
2023-01-21T14:08:36.998Z,2.47
2023-01-21T14:09:45.193Z,2.49
2023-01-21T14:10:49.331Z,2.50
2023-01-21T14:12:12.499Z,2.44
2023-01-21T14:13:35.629Z,2.49
2023-01-21T14:14:39.844Z,2.40
2023-01-21T14:15:57.055Z,2.52
2023-01-21T14:17:01.360Z,2.50
2023-01-21T14:18:20.126Z,2.64
2023-01-21T14:19:29.212Z,2.52
2023-01-21T14:20:37.184Z,2.43
2023-01-21T14:21:45.147Z,2.35
2023-01-21T14:23:08.719Z,2.41
2023-01-21T14:24:30.609Z,2.47
2023-01-21T14:25:49.886Z,2.46
2023-01-21T14:26:56.410Z,2.52
2023-01-21T14:28:18.813Z,2.47
2023-01-21T14:29:24.828Z,2.54
2023-01-21T14:30:33.743Z,2.62
2023-01-21T14:31:43.476Z,2.50
2023-01-21T14:33:00.529Z,2.43
2023-01-21T14:34:06.676Z,2.41
2023-01-21T14:35:13.810Z,2.66
2023-01-21T14:36:25.052Z,2.71
2023-01-21T14:37:31.457Z,2.72
2023-01-21T14:38:38.303Z,2.58
2023-01-21T14:39:42.972Z,2.59
2023-01-21T14:40:49.611Z,2.70
2023-01-21T14:41:59.250Z,2.73
2023-01-21T14:43:03.537Z,2.78
2023-01-21T14:44:08.676Z,2.78
2023-01-21T14:45:13.779Z,2.66
2023-01-21T14:46:24.775Z,2.67
2023-01-21T14:47:34.385Z,2.75
2023-01-21T14:48:42.439Z,2.61
2023-01-21T14:49:47.524Z,2.71
2023-01-21T14:50:54.779Z,2.63
2023-01-21T14:51:59.228Z,2.68
2023-01-21T14:53:04.404Z,2.76
2023-01-21T14:54:18.981Z,2.67
2023-01-21T14:55:28.951Z,2.82
2023-01-21T14:56:35.903Z,2.91
2023-01-21T14:57:40.574Z,2.79
2023-01-21T14:58:48.438Z,2.70
2023-01-21T14:59:52.964Z,2.73
2023-01-21T15:00:56.520Z,2.66
2023-01-21T15:02:02.189Z,2.70
2023-01-21T15:03:16.952Z,2.65
2023-01-21T15:04:22.060Z,2.75
2023-01-21T15:05:26.935Z,2.81
2023-01-21T15:06:30.531Z,2.72
2023-01-21T15:07:38.968Z,2.64
2023-01-21T15:08:46.355Z,2.70
2023-01-21T15:09:50.681Z,2.77
2023-01-21T15:11:02.004Z,2.92
2023-01-21T15:12:06.346Z,2.96
2023-01-21T15:13:22.802Z,2.86
2023-01-21T15:14:28.700Z,3.07
2023-01-21T15:15:34.500Z,3.06
2023-01-21T15:16:39.848Z,3.20
2023-01-21T15:17:47.764Z,3.23
2023-01-21T15:19:09.320Z,3.27
2023-01-21T15:20:31.867Z,3.40
2023-01-21T15:21:44.981Z,3.57
2023-01-21T15:22:50.002Z,3.41
2023-01-21T15:23:53.279Z,3.41
2023-01-21T15:25:17.879Z,3.39
2023-01-21T15:26:24.426Z,3.37
2023-01-21T15:27:28.958Z,3.47
2023-01-21T15:28:46.337Z,3.33
2023-01-21T15:30:00.228Z,3.34
2023-01-21T15:31:05.244Z,3.50
2023-01-21T15:32:25.985Z,3.29
2023-01-21T15:33:31.803Z,3.17
2023-01-21T15:34:37.775Z,3.45
2023-01-21T15:35:41.648Z,3.42
2023-01-21T15:36:49.939Z,3.33
2023-01-21T15:37:56.994Z,3.15
2023-01-21T15:39:02.565Z,3.23
2023-01-21T15:40:25.523Z,3.24
2023-01-21T15:41:29.537Z,3.11
2023-01-21T15:42:46.738Z,3.07
2023-01-21T15:43:53.165Z,3.07
2023-01-21T15:45:17.629Z,2.98
2023-01-21T15:46:24.550Z,2.77
2023-01-21T15:47:32.718Z,3.00
2023-01-21T15:48:46.969Z,3.06
2023-01-21T15:49:53.823Z,3.13
2023-01-21T15:51:03.209Z,3.10
2023-01-21T15:52:08.360Z,3.11
2023-01-21T15:53:31.071Z,3.16
2023-01-21T15:54:35.209Z,3.19
2023-01-21T15:55:43.572Z,3.15
2023-01-21T15:56:49.522Z,3.16
2023-01-21T15:57:55.564Z,3.29
2023-01-21T15:59:01.589Z,3.31
2023-01-21T16:00:23.070Z,3.30
2023-01-21T16:01:37.640Z,3.37
2023-01-21T16:02:46.901Z,3.37
2023-01-21T16:04:10.516Z,3.33
2023-01-21T16:05:27.709Z,3.08
2023-01-21T16:06:32.569Z,3.02
2023-01-21T16:07:43.807Z,3.14
2023-01-21T16:08:50.649Z,3.36
2023-01-21T16:10:01.877Z,3.16
2023-01-21T16:11:18.643Z,3.33
2023-01-21T16:12:38.723Z,3.31
2023-01-21T16:13:43.005Z,3.12
2023-01-21T16:14:51.320Z,3.27
2023-01-21T16:15:55.468Z,3.31
2023-01-21T16:17:15.664Z,3.20
2023-01-21T16:18:30.971Z,3.06
2023-01-21T16:19:36.147Z,3.16
2023-01-21T16:20:41.321Z,3.31
2023-01-21T16:21:46.814Z,3.36
2023-01-21T16:22:52.500Z,3.31
2023-01-21T16:23:57.789Z,3.33
2023-01-21T16:25:02.953Z,3.40
2023-01-21T16:26:06.675Z,3.48
2023-01-21T16:27:20.422Z,3.47
2023-01-21T16:28:24.031Z,3.42
2023-01-21T16:29:27.427Z,3.41
2023-01-21T16:30:32.359Z,3.37
2023-01-21T16:31:37.468Z,3.39
2023-01-21T16:32:44.068Z,3.32
2023-01-21T16:33:46.766Z,3.38
2023-01-21T16:34:51.049Z,3.32
2023-01-21T16:35:56.564Z,3.33
2023-01-21T16:37:01.145Z,3.32
2023-01-21T16:38:04.450Z,3.29
2023-01-21T16:39:08.689Z,3.21
2023-01-21T16:40:14.759Z,3.29
2023-01-21T16:41:20.784Z,3.13
2023-01-21T16:42:31.553Z,3.26
2023-01-21T16:43:36.667Z,3.26
2023-01-21T16:44:40.104Z,3.19
2023-01-21T16:45:44.235Z,3.10
2023-01-21T16:46:49.516Z,3.02
2023-01-21T16:48:01.226Z,3.13
2023-01-21T16:49:06.874Z,3.02
2023-01-21T16:50:19.988Z,2.93
2023-01-21T16:51:28.646Z,2.87
2023-01-21T16:52:33.638Z,2.96
2023-01-21T16:53:37.080Z,3.06
2023-01-21T16:54:42.401Z,3.02
2023-01-21T16:55:47.791Z,3.08
2023-01-21T16:56:52.289Z,2.98
2023-01-21T16:58:00.568Z,3.08
2023-01-21T16:59:03.899Z,3.07
2023-01-21T17:00:10.200Z,3.05
2023-01-21T17:01:19.629Z,2.87
2023-01-21T17:02:26.214Z,2.90
2023-01-21T17:03:30.574Z,3.00
2023-01-21T17:04:33.759Z,3.08
2023-01-21T17:05:38.159Z,3.13
2023-01-21T17:06:42.313Z,3.00
2023-01-21T17:07:48.869Z,2.95
2023-01-21T17:08:54.666Z,3.05
2023-01-21T17:10:01.103Z,3.04
2023-01-21T17:11:06.682Z,3.09
2023-01-21T17:12:12.938Z,3.04
2023-01-21T17:13:16.816Z,3.13
2023-01-21T17:14:22.826Z,3.09
2023-01-21T17:15:32.008Z,3.01
2023-01-21T17:16:36.104Z,2.93
2023-01-21T17:17:39.728Z,2.99
2023-01-21T17:18:46.159Z,3.01
2023-01-21T17:19:54.426Z,3.11
2023-01-21T17:21:08.723Z,2.96
2023-01-21T17:22:18.711Z,2.93
2023-01-21T17:23:25.248Z,2.99
2023-01-21T17:24:30.303Z,3.15
2023-01-21T17:25:35.441Z,3.07
2023-01-21T17:26:40.446Z,3.02
2023-01-21T17:27:48.805Z,2.92
2023-01-21T17:28:55.968Z,2.88
2023-01-21T17:30:17.084Z,3.07
2023-01-21T17:31:25.377Z,3.08
2023-01-21T17:32:33.197Z,3.13
2023-01-21T17:33:37.421Z,3.03
2023-01-21T17:34:42.057Z,2.96
2023-01-21T17:35:47.565Z,3.04
2023-01-21T17:36:55.580Z,2.97
2023-01-21T17:38:00.409Z,3.02
2023-01-21T17:39:05.065Z,2.94
2023-01-21T17:40:10.252Z,3.07
2023-01-21T17:42:36.480Z,3.15
2023-01-21T17:43:40.807Z,3.11
2023-01-21T17:44:45.809Z,2.87
2023-01-21T17:45:49.954Z,2.88
2023-01-21T17:46:54.696Z,3.01
2023-01-21T17:48:11.016Z,3.05
2023-01-21T17:49:09.338Z,3.17
2023-01-21T17:50:20.439Z,3.15
2023-01-21T17:51:25.786Z,3.04
2023-01-21T17:52:29.861Z,3.00
2023-01-21T17:53:40.255Z,3.09
2023-01-21T17:54:43.652Z,3.14
2023-01-21T17:55:48.289Z,3.18
2023-01-21T17:56:53.188Z,3.15
2023-01-21T17:57:56.257Z,3.17
2023-01-21T17:59:03.366Z,3.15
2023-01-21T18:00:11.205Z,3.03
2023-01-21T18:01:15.655Z,3.17
2023-01-21T18:02:18.869Z,3.11
2023-01-21T18:03:22.872Z,3.12
2023-01-21T18:04:26.126Z,3.17
2023-01-21T18:05:30.300Z,3.20
2023-01-21T18:06:34.428Z,3.17
2023-01-21T18:07:38.683Z,3.19
2023-01-21T18:08:41.983Z,3.31
2023-01-21T18:09:47.232Z,3.31
2023-01-21T18:10:53.155Z,3.32
2023-01-21T18:11:57.713Z,3.18
2023-01-21T18:13:00.281Z,3.21
2023-01-21T18:14:03.871Z,3.26
2023-01-21T18:15:07.900Z,3.42
2023-01-21T18:16:11.747Z,3.38
2023-01-21T18:17:16.800Z,3.22
2023-01-21T18:18:27.386Z,3.38
2023-01-21T18:19:32.473Z,3.35
2023-01-21T18:20:36.809Z,3.28
2023-01-21T18:21:39.372Z,3.33
2023-01-21T18:22:43.506Z,3.42
2023-01-21T18:23:47.094Z,3.42
2023-01-21T18:24:49.459Z,3.56
2023-01-21T18:25:53.814Z,3.57
2023-01-21T18:27:00.008Z,3.44
2023-01-21T18:28:04.269Z,3.29
2023-01-21T18:29:09.308Z,3.28
2023-01-21T18:30:17.233Z,3.31
2023-01-21T18:31:20.902Z,3.41
2023-01-21T18:32:23.404Z,3.46
2023-01-21T18:33:25.707Z,3.41
2023-01-21T18:34:30.967Z,3.31
2023-01-21T18:35:34.331Z,3.39
2023-01-21T18:36:38.973Z,3.43
2023-01-21T18:37:41.244Z,3.48
2023-01-21T18:38:45.584Z,3.45
2023-01-21T18:39:48.668Z,3.20
2023-01-21T18:40:51.330Z,3.23
2023-01-21T18:41:56.285Z,3.37
2023-01-21T18:42:59.817Z,3.33
2023-01-21T18:44:02.169Z,3.42
2023-01-21T18:45:06.092Z,3.40
2023-01-21T18:46:15.837Z,3.35
2023-01-21T18:47:21.090Z,3.36
2023-01-21T18:48:26.164Z,3.45
2023-01-21T18:49:29.856Z,3.35
2023-01-21T18:50:32.287Z,3.20
2023-01-21T18:51:35.670Z,3.33
2023-01-21T18:52:39.182Z,3.52
2023-01-21T18:53:42.581Z,3.42
2023-01-21T18:54:45.888Z,3.37
2023-01-21T18:55:50.951Z,3.38
2023-01-21T18:56:55.404Z,3.33
2023-01-21T18:57:59.564Z,3.48
2023-01-21T18:59:04.749Z,3.53
2023-01-21T19:00:09.519Z,3.47
2023-01-21T19:01:22.451Z,3.46
2023-01-21T19:02:20.524Z,3.46
2023-01-21T19:03:23.955Z,3.49
2023-01-21T19:04:27.363Z,3.46
2023-01-21T19:05:36.494Z,3.50
2023-01-21T19:06:39.913Z,3.47
2023-01-21T19:07:43.671Z,3.46
2023-01-21T19:08:49.076Z,3.66
2023-01-21T19:09:52.282Z,3.58
2023-01-21T19:10:55.898Z,3.47
2023-01-21T19:11:58.561Z,3.49
2023-01-21T19:13:01.876Z,3.55
2023-01-21T19:14:04.959Z,3.42
2023-01-21T19:15:11.707Z,3.31
2023-01-21T19:16:18.831Z,3.35
2023-01-21T19:17:25.606Z,3.42
2023-01-21T19:18:28.823Z,3.43
2023-01-21T19:19:33.138Z,3.46
2023-01-21T19:20:38.185Z,3.43
2023-01-21T19:21:41.856Z,3.48
2023-01-21T19:22:46.575Z,3.53
2023-01-21T19:23:49.797Z,3.51
2023-01-21T19:24:53.406Z,3.50
2023-01-21T19:25:57.963Z,3.47
2023-01-21T19:27:01.337Z,3.40
2023-01-21T19:28:05.346Z,3.49
2023-01-21T19:29:10.101Z,3.61
2023-01-21T19:30:22.702Z,3.52
2023-01-21T19:31:26.866Z,3.56
2023-01-21T19:32:30.569Z,3.48
2023-01-21T19:33:34.822Z,3.53
2023-01-21T19:35:52.764Z,3.57
2023-01-21T19:36:56.607Z,3.50
2023-01-21T19:38:00.915Z,3.59
2023-01-21T19:39:04.199Z,3.61
2023-01-21T19:40:18.009Z,3.62
2023-01-21T19:41:21.704Z,3.68
2023-01-21T19:42:25.181Z,3.53
2023-01-21T19:43:27.848Z,3.74
2023-01-21T19:44:33.178Z,3.76
2023-01-21T19:45:36.842Z,3.67
2023-01-21T19:46:41.267Z,3.57
2023-01-21T19:47:46.567Z,3.59
2023-01-21T19:48:51.984Z,3.77
2023-01-21T19:49:56.406Z,3.58
2023-01-21T19:50:59.303Z,3.58
2023-01-21T19:52:02.886Z,3.45
2023-01-21T19:53:07.835Z,3.53
2023-01-21T19:54:11.468Z,3.51
2023-01-21T19:55:14.859Z,3.61
2023-01-21T19:56:21.332Z,3.44
2023-01-21T19:57:24.585Z,3.49
2023-01-21T19:58:31.853Z,3.46
2023-01-21T19:59:35.776Z,3.50
2023-01-21T20:00:40.778Z,3.57
2023-01-21T20:01:44.900Z,3.51
2023-01-21T20:02:47.740Z,3.51
2023-01-21T20:04:00.238Z,3.49
2023-01-21T20:04:59.855Z,3.46
2023-01-21T20:06:05.385Z,3.59
2023-01-21T20:07:10.651Z,3.67
2023-01-21T20:08:15.831Z,3.57
2023-01-21T20:09:20.008Z,3.56
2023-01-21T20:10:28.193Z,3.33
2023-01-21T20:11:37.794Z,3.49
2023-01-21T20:12:44.400Z,3.57
2023-01-21T20:13:47.766Z,3.38
2023-01-21T20:14:51.600Z,3.47
2023-01-21T20:15:54.058Z,3.46
2023-01-21T20:17:00.148Z,3.60
2023-01-21T20:18:05.570Z,3.49
2023-01-21T20:19:11.989Z,3.42
2023-01-21T20:20:23.734Z,3.51
2023-01-21T20:21:25.988Z,3.72
2023-01-21T20:22:32.084Z,3.68
2023-01-21T20:23:37.929Z,3.63
2023-01-21T20:24:41.337Z,3.71
2023-01-21T20:25:47.001Z,3.79
2023-01-21T20:26:49.886Z,3.78
2023-01-21T20:27:55.162Z,3.57
2023-01-21T20:29:03.262Z,3.56
2023-01-21T20:30:15.901Z,3.48
2023-01-21T20:31:12.560Z,3.51
2023-01-21T20:32:15.370Z,3.42
2023-01-21T20:33:23.123Z,3.49
2023-01-21T20:34:35.026Z,3.43
2023-01-21T20:35:41.971Z,3.40
2023-01-21T20:36:47.009Z,3.38
2023-01-21T20:37:52.126Z,3.37
2023-01-21T20:38:55.906Z,3.24
2023-01-21T20:39:59.722Z,3.37
2023-01-21T20:41:03.878Z,3.41
2023-01-21T20:42:07.144Z,3.42
2023-01-21T20:43:10.906Z,3.47
2023-01-21T20:44:14.265Z,3.59
2023-01-21T20:45:19.021Z,3.61
2023-01-21T20:46:24.083Z,3.51
2023-01-21T20:47:38.066Z,3.49
2023-01-21T20:48:35.492Z,3.42
2023-01-21T20:49:38.996Z,3.29
2023-01-21T20:50:43.545Z,3.26
2023-01-21T20:51:45.787Z,3.45
2023-01-21T20:52:49.843Z,3.32
2023-01-21T20:53:58.238Z,3.37
2023-01-21T20:55:04.197Z,3.29
2023-01-21T20:56:21.755Z,3.35
2023-01-21T20:57:24.943Z,3.42
2023-01-21T20:58:30.039Z,3.42
2023-01-21T20:59:34.657Z,3.39
2023-01-21T21:00:38.573Z,3.35
2023-01-21T21:01:41.811Z,3.29
2023-01-21T21:02:46.091Z,3.45
2023-01-21T21:03:50.578Z,3.52
2023-01-21T21:04:54.067Z,3.57
2023-01-21T21:05:59.926Z,3.60
2023-01-21T21:07:03.234Z,3.69
2023-01-21T21:08:06.430Z,3.56
2023-01-21T21:09:09.764Z,3.57
2023-01-21T21:10:15.312Z,3.51
2023-01-21T21:11:19.167Z,3.43
2023-01-21T21:12:22.370Z,3.40
2023-01-21T21:13:28.122Z,3.27
2023-01-21T21:14:34.338Z,3.37
2023-01-21T21:15:39.115Z,3.54
2023-01-21T21:16:45.551Z,3.56
2023-01-21T21:17:50.891Z,3.47
2023-01-21T21:18:54.732Z,3.44
2023-01-21T21:19:56.959Z,3.52
2023-01-21T21:21:00.284Z,3.47
2023-01-21T21:22:03.496Z,3.60
2023-01-21T21:23:06.949Z,3.57
2023-01-21T21:24:09.680Z,3.52
2023-01-21T21:25:15.366Z,3.63
2023-01-21T21:26:25.593Z,3.51
2023-01-21T21:27:37.108Z,3.52
2023-01-21T21:28:42.228Z,3.46
2023-01-21T21:29:45.349Z,3.50
2023-01-21T21:30:48.230Z,3.46
2023-01-21T21:31:52.569Z,3.58
2023-01-21T21:32:56.465Z,3.74
2023-01-21T21:33:59.724Z,3.73
2023-01-21T21:35:02.790Z,3.57
2023-01-21T21:36:06.375Z,3.42
2023-01-21T21:37:11.444Z,3.54
2023-01-21T21:38:16.549Z,3.54
2023-01-21T21:39:20.261Z,3.52
2023-01-21T21:40:25.355Z,3.58
2023-01-21T21:41:46.749Z,3.58
2023-01-21T21:43:07.554Z,3.50
2023-01-21T21:44:11.795Z,3.63
2023-01-21T21:45:14.943Z,3.74
2023-01-21T21:46:39.649Z,3.84
2023-01-21T21:48:00.584Z,3.80
2023-01-21T21:49:15.169Z,3.84
2023-01-21T21:50:18.743Z,3.73
2023-01-21T21:51:24.151Z,3.74
2023-01-21T21:52:27.405Z,3.72
2023-01-21T21:53:29.985Z,3.78
2023-01-21T21:54:33.231Z,3.80
2023-01-21T21:55:36.435Z,3.83
2023-01-21T21:56:39.616Z,3.88
2023-01-21T21:57:43.714Z,3.87
2023-01-21T21:58:47.345Z,3.95
2023-01-21T21:59:51.360Z,3.97
2023-01-21T22:00:57.681Z,3.95
2023-01-21T22:02:01.055Z,3.89
2023-01-21T22:03:07.407Z,3.87
2023-01-21T22:04:10.554Z,3.88
2023-01-21T22:05:13.385Z,3.96
2023-01-21T22:06:17.512Z,3.93
2023-01-21T22:07:22.462Z,3.93
2023-01-21T22:08:26.881Z,3.92
2023-01-21T22:09:29.551Z,3.82
2023-01-21T22:10:32.791Z,3.82
2023-01-21T22:11:37.129Z,3.94
2023-01-21T22:12:40.217Z,4.08
2023-01-21T22:13:48.379Z,4.13
2023-01-21T22:14:50.400Z,4.18
2023-01-21T22:15:57.417Z,4.27
2023-01-21T22:17:00.764Z,4.30
2023-01-21T22:18:04.168Z,4.28
2023-01-21T22:19:07.488Z,4.25
2023-01-21T22:20:13.829Z,4.27
2023-01-21T22:21:24.534Z,4.18
2023-01-21T22:22:28.125Z,4.32
2023-01-21T22:23:31.929Z,4.36
2023-01-21T22:24:35.904Z,4.20
2023-01-21T22:25:39.277Z,4.14
2023-01-21T22:26:42.553Z,4.25
2023-01-21T22:27:44.959Z,4.31
2023-01-21T22:28:48.128Z,4.32
2023-01-21T22:29:51.359Z,4.23
2023-01-21T22:30:53.876Z,4.32
2023-01-21T22:31:57.275Z,4.33
2023-01-21T22:33:00.476Z,4.42
2023-01-21T22:34:03.544Z,4.31
2023-01-21T22:35:06.250Z,4.24
2023-01-21T22:36:11.969Z,4.36
2023-01-21T22:37:15.345Z,4.48
2023-01-21T22:38:19.960Z,4.58
2023-01-21T22:39:26.978Z,4.61
2023-01-21T22:40:32.922Z,4.46
2023-01-21T22:41:36.467Z,4.49
2023-01-21T22:42:39.548Z,4.52
2023-01-21T22:43:44.737Z,4.57
2023-01-21T22:44:48.061Z,4.56
2023-01-21T22:45:53.102Z,4.48
2023-01-21T22:46:56.495Z,4.19
2023-01-21T22:47:58.984Z,4.24
2023-01-21T22:49:03.251Z,4.31
2023-01-21T22:50:07.055Z,4.37
2023-01-21T22:51:12.999Z,4.39
2023-01-21T22:52:16.264Z,4.33
2023-01-21T22:53:20.397Z,4.36
2023-01-21T22:54:23.635Z,4.38
2023-01-21T22:55:26.158Z,4.35
2023-01-21T22:56:49.977Z,4.37
2023-01-21T22:57:34.733Z,4.41
2023-01-21T22:58:38.211Z,4.33
2023-01-21T22:59:41.481Z,4.33
2023-01-21T23:00:44.912Z,4.41
2023-01-21T23:01:48.233Z,4.43
2023-01-21T23:02:51.611Z,4.46
2023-01-21T23:03:53.767Z,4.47
2023-01-21T23:04:57.137Z,4.42
2023-01-21T23:06:19.812Z,4.41
2023-01-21T23:07:22.929Z,4.44
2023-01-21T23:08:25.187Z,4.46
2023-01-21T23:09:29.577Z,4.41
2023-01-21T23:10:35.204Z,4.24
2023-01-21T23:11:37.691Z,4.11
2023-01-21T23:12:44.003Z,4.30
2023-01-21T23:13:49.367Z,4.29
2023-01-21T23:14:52.146Z,4.34
2023-01-21T23:15:55.836Z,4.41
2023-01-21T23:17:01.842Z,4.51
2023-01-21T23:18:05.442Z,4.55
2023-01-21T23:19:08.660Z,4.49
2023-01-21T23:20:13.129Z,4.54
2023-01-21T23:21:17.690Z,4.38
2023-01-21T23:22:20.953Z,4.40
2023-01-21T23:23:25.936Z,4.51
2023-01-21T23:24:30.043Z,4.46
2023-01-21T23:25:35.161Z,4.42
2023-01-21T23:26:38.547Z,4.35
2023-01-21T23:27:41.834Z,4.31
2023-01-21T23:28:44.360Z,4.38
2023-01-21T23:29:47.576Z,4.39
2023-01-21T23:30:50.924Z,4.49
2023-01-21T23:31:54.693Z,4.37
2023-01-21T23:32:57.910Z,4.31
2023-01-21T23:34:01.230Z,4.30
2023-01-21T23:35:04.827Z,4.34
2023-01-21T23:36:12.569Z,4.30
2023-01-21T23:37:15.887Z,4.33
2023-01-21T23:38:20.307Z,4.29
2023-01-21T23:39:22.832Z,4.35
2023-01-21T23:40:25.024Z,4.23
2023-01-21T23:41:28.144Z,4.22
2023-01-21T23:42:31.186Z,4.18
2023-01-21T23:43:35.184Z,4.07
2023-01-21T23:44:38.519Z,4.07
2023-01-21T23:45:42.407Z,4.06
2023-01-21T23:46:45.476Z,4.05
2023-01-21T23:47:48.830Z,4.13
2023-01-21T23:48:52.004Z,4.11
2023-01-21T23:49:55.089Z,4.13
2023-01-21T23:51:01.188Z,4.07
2023-01-21T23:52:06.143Z,4.14
2023-01-21T23:53:09.407Z,4.18
2023-01-21T23:54:13.311Z,4.17
2023-01-21T23:55:16.129Z,4.18
2023-01-21T23:56:23.434Z,4.20
2023-01-21T23:57:26.461Z,4.34
2023-01-21T23:58:29.013Z,4.29
2023-01-21T23:59:32.312Z,4.32
